Warning: Javascript must be enabled to use all the features on this page!


Page Loading - Please Wait...

Click to hideNews Bulletins

Peak Streamflow for the Nation

USGS 10141000 WEBER RIVER NEAR PLAIN CITY, UT

Weber County, Utah
Hydrologic Unit Code 16020102
Latitude  41°16'42", Longitude 112°05'28" NAD27
Drainage area 2,081  square miles
Gage datum 4,200.22 feet above NAVD88
Output formats
Table
Graph
Tab-separated file
peakfq (watstore) format
Reselect output format
Water
Year
Date Gage
Height
(feet)
Stream-
flow
(cfs)
1905 1905-05-21   2,2706
1906 1906-05-31   5,1506
1907 1907-04-16   5,8806
1908 1908-06-16   3,6506
1909 1909-06-06 19.103 7,5806
1910 1910-03-23   5,1306
1911 1911-02-01   5,9006
1912 1912-05-22   6,4506
1913 1913-04-03   4,9006
1914 1914-04-17   5,7006
1915 1915-04-21 9.303 1,8806
1916 1916-03-22 18.703 6,7306
1917 1917-05-17 18.903 6,9106
1918 1918-03-13 10.903 2,3706
1919 1919-04-25 11.803 2,6806
1920 1920-05-23 19.103 7,1006
1921 1921-05-18 18.703 7,0006
1922 1922-05-08 19.003 7,2706
1923 1923-05-12 18.503 6,8206
1924 1924-04-15 11.333 2,5206
1925 1925-04-19 12.253 2,7906
1926 1926-04-07 14.323 3,4106
1927 1927-05-02 17.403 5,0306
1928 1928-05-13 16.813 4,6206
1929 1929-05-17 17.053 4,7806
1930 1930-04-15 10.243 1,7906
1931 1930-11-29 6.463 5776
1932 1932-05-16 18.383 5,8006
1933 1933-06-01 14.363 3,3006
1934 1934-02-24 5.023 2856
1935 1935-05-31 10.483 1,6206
1936 1936-04-25 19.003 6,0506
1937 1937-05-11 17.363 4,3906
1938 1938-04-26 17.053 3,9606
1939 1939-03-25 10.303 1,6106
1940 1940-03-27 8.453 1,0606
1941 1941-05-07 9.003 1,2206
1942 1942-04-05 14.323 2,7706
1943 1943-04-26 15.893 3,3106
1944 1944-06-04 16.743 3,7406
1945 1945-06-08 16.333 3,4306
1946 1946-04-28 18.203 4,4706
1947 1947-05-14 13.273 2,4806
1948 1948-05-20 18.473 4,9306
1949 1949-05-23 16.183 4,1706
1950 1950-05-20 17.253 5,5006
1951 1951-05-08 14.093 3,8606
1952 1952-05-06 19.013 10,1006
1953 1953-05-21 12.133 3,3406
1954 1954-04-19 4.713 6796
1955 1955-05-09 5.433 9766
1956 1955-12-24 10.923 2,6106
1957 1957-05-22 13.083 3,3906
1958 1958-04-19 13.243 3,3606
1959 1959-04-27 5.313 7076
1960 1960-03-09 8.373 1,6806
1961 1961-09-19 4.223 4156
1962 1962-02-11 10.743 2,4506
1963 1963-05-11 9.253 1,7406
1964 1964-06-10 13.103 3,2006
1965 1965-04-24 12.303 2,8806
1966 1966-03-15 7.363 1,2006
1967 1967-06-24 12.043 2,5606
1968 1968-06-09 11.443 2,2806
1969 1969-04-02 12.173 2,7406
1970 1970-06-11 10.193 1,8406
1971 1971-04-30 13.713 2,9506
1972 1972-03-03 14.323 2,9406
1973 1973-05-11 12.613 2,5606
1974 1974-05-10 15.033 3,4106
1975 1975-05-20 16.263 3,6006
1976 1976-05-08 10.073 1,8306
1977 1977-05-17 4.533 5306
1978 1978-05-16 13.433 2,8706
1979 1979-05-09 8.473 1,4506
1980 1980-06-03 15.263 3,6106
1981 1981-05-22 11.693 2,2906
1982 1982-04-12 15.853 3,8206
1983 1983-06-02 18.513 7,2506
1984 1984-05-16 17.753 5,5906
1985 1985-05-11   3,5006
1986 1986-02-18 18.043 5,7606
1987 1986-10-18 18.426 1,3606
1988 1987-10-13 14.22 2666
1989 1989-05-13 14.91 6256
1990 1989-10-25 13.77 3716
1991 1991-06-03 18.27 1,3006
1992 1991-10-27 14.81 5696
1993 1993-05-07 23.13 3,2306
1994 1994-04-23 17.62 1,2906
1995 1995-06-10 23.82 3,3506
1996 1996-03-23 19.56 1,8506
1997 1997-05-01 22.51 2,8306
1998 1998-06-20 23.32 3,1306
1999 1999-05-03 24.18 3,5306
2000 2000-08-31 16.09 9576
2001 2001-04-29 13.49 4146
2002 2002-05-22 13.92 5246
2003 2002-11-09 13.45 4266
2004 2004-03-20 14.18 5456
2005 2005-05-12 24.10 3,4906
2006 2006-04-18 24.70 3,8006
2007 2006-11-14 16.11 9696
2008 2008-06-06 17.84 1,4306
2009 2009-06-23 20.79 2,2606
2010 2010-06-11 21.67 2,4806
2011 2011-06-08 28.05 5,0406
2012 2012-01-21 17.24 1,3206
2013 2012-10-23 13.52 5056
2014 2014-03-02 14.06 5866
2015 2015-05-17 13.33 4686
2016 2016-04-24 15.65 1,2606
2017 2017-03-23 24.40 3,9106
2018 2017-11-17 14.552 8376
2019 2019-04-27 22.58 3,2506
2020 2020-03-11 14.68 8386
2021 2020-10-15 12.432 4116
?
  Peak Gage-Height Qualification Codes.
?
  Peak Streamflow Qualification Codes.